Time;durP1;ratioP1;P1;durP2;ratioP2;P2;SDS_P1;SDS_P2;PMS_P1;PMS_P2;Temp;Humidity;BMP_temperature;BMP_pressure;BME280_temperature;BME280_humidity;BME280_pressure;Samples;Min_cycle;Max_cycle;Signal;HPM_P1;HPM_P2
2021/09/22 00:00:17;;;;;;;10.75;7.55;;;;;;;12.31;71.46;101605.88;4923144;28;116659;-64
2021/09/22 00:02:43;;;;;;;8.57;6.88;;;;;;;12.30;71.38;101604.25;4920741;28;111844;-64
2021/09/22 00:05:13;;;;;;;8.35;6.80;;;;;;;12.28;71.54;101607.19;4923097;28;97937;-62
2021/09/22 00:07:39;;;;;;;10.10;7.05;;;;;;;12.33;71.84;101602.91;4903927;28;127617;-64
2021/09/22 00:10:09;;;;;;;9.95;7.13;;;;;;;12.32;71.92;101612.91;4922385;28;114746;-64
2021/09/22 00:12:35;;;;;;;9.35;7.03;;;;;;;12.33;72.00;101611.03;4922827;28;101911;-62
2021/09/22 00:15:02;;;;;;;9.48;6.93;;;;;;;12.34;72.18;101607.25;4921354;28;97891;-64
2021/09/22 00:17:28;;;;;;;9.15;6.88;;;;;;;12.33;72.14;101597.50;4922870;28;98265;-64
2021/09/22 00:19:54;;;;;;;9.35;7.20;;;;;;;12.34;72.08;101604.53;4920245;28;128031;-64
2021/09/22 00:22:20;;;;;;;10.30;7.00;;;;;;;12.32;72.37;101610.22;4921405;28;123212;-61
2021/09/22 00:24:46;;;;;;;9.52;7.55;;;;;;;12.32;72.09;101604.81;4905000;28;99176;-62
2021/09/22 00:27:12;;;;;;;11.20;7.45;;;;;;;12.32;71.85;101612.09;4921152;28;127658;-62
2021/09/22 00:29:38;;;;;;;8.85;7.60;;;;;;;12.33;72.41;101619.13;4921194;28;127764;-62
2021/09/22 00:32:05;;;;;;;9.90;6.93;;;;;;;12.31;72.32;101615.88;4920512;28;127830;-64
2021/09/22 00:34:31;;;;;;;9.40;6.82;;;;;;;12.33;72.33;101605.63;4921677;28;105195;-64
2021/09/22 00:36:57;;;;;;;9.95;7.03;;;;;;;12.32;72.31;101610.22;4920349;28;128834;-64
2021/09/22 00:39:23;;;;;;;8.45;6.75;;;;;;;12.32;72.05;101615.63;4922583;28;97968;-62
2021/09/22 00:41:49;;;;;;;8.00;6.40;;;;;;;12.32;72.43;101620.22;4922227;28;98171;-63
2021/09/22 00:44:15;;;;;;;9.10;6.80;;;;;;;12.34;72.65;101612.66;4923173;28;97931;-62
2021/09/22 00:46:41;;;;;;;8.35;6.57;;;;;;;12.36;72.35;101610.53;4921019;28;125616;-64
2021/09/22 00:49:07;;;;;;;8.10;6.20;;;;;;;12.34;72.55;101613.50;4921152;28;125229;-64
2021/09/22 00:51:33;;;;;;;8.55;6.88;;;;;;;12.36;72.45;101610.53;4921025;28;97860;-64
2021/09/22 00:53:59;;;;;;;8.77;6.55;;;;;;;12.34;72.46;101602.69;4923012;28;97721;-64
2021/09/22 00:56:25;;;;;;;7.10;5.57;;;;;;;12.36;72.54;101603.25;4920950;28;125750;-62
2021/09/22 00:58:52;;;;;;;7.90;5.90;;;;;;;12.37;72.66;101602.16;4921679;28;99722;-64
2021/09/22 01:01:19;;;;;;;7.18;5.90;;;;;;;12.37;72.67;101604.88;4921482;28;128437;-62
2021/09/22 01:03:45;;;;;;;9.38;6.47;;;;;;;12.37;72.50;101604.06;4920430;28;98121;-64
2021/09/22 01:06:15;;;;;;;9.38;6.07;;;;;;;12.36;72.62;101594.31;4903658;28;115787;-62
2021/09/22 01:08:41;;;;;;;7.47;6.03;;;;;;;12.39;72.83;101600.03;4903831;28;98356;-62
2021/09/22 01:11:07;;;;;;;6.78;5.32;;;;;;;12.39;72.76;101593.81;4919871;28;98244;-64
2021/09/22 01:13:33;;;;;;;8.50;6.38;;;;;;;12.39;72.95;101599.22;4903171;28;117603;-62
2021/09/22 01:15:59;;;;;;;9.55;6.13;;;;;;;12.38;72.72;101590.31;4919363;28;116103;-62
2021/09/22 01:18:26;;;;;;;7.53;5.63;;;;;;;12.41;72.58;101594.38;4919333;28;127179;-64
2021/09/22 01:20:55;;;;;;;8.77;6.57;;;;;;;12.40;72.55;101595.44;4921020;28;98299;-64
2021/09/22 01:23:21;;;;;;;7.22;5.57;;;;;;;12.41;72.57;101592.47;4922111;28;97632;-62
2021/09/22 01:25:50;;;;;;;8.63;6.30;;;;;;;12.40;72.63;101590.03;4921034;28;99013;-62
2021/09/22 01:28:19;;;;;;;7.15;5.60;;;;;;;12.39;72.63;101589.22;4921202;28;99056;-62
2021/09/22 01:30:46;;;;;;;6.43;5.72;;;;;;;12.39;72.67;101583.81;4920812;28;98092;-62
2021/09/22 01:33:12;;;;;;;7.38;5.80;;;;;;;12.44;73.11;101588.47;4921436;28;99175;-61
2021/09/22 01:35:44;;;;;;;7.97;6.00;;;;;;;12.49;72.55;101591.22;4920684;28;109805;-64
2021/09/22 01:38:18;;;;;;;7.80;5.65;;;;;;;12.55;72.40;101603.75;4921374;28;97747;-62
2021/09/22 01:41:05;;;;;;;8.82;6.20;;;;;;;12.59;72.04;101588.63;4918767;28;102279;-62
2021/09/22 01:43:32;;;;;;;7.55;5.93;;;;;;;12.63;72.29;101586.25;4921506;28;98056;-62
2021/09/22 01:45:59;;;;;;;9.70;5.90;;;;;;;12.67;72.33;101585.47;4921256;28;98294;-62
2021/09/22 01:48:26;;;;;;;8.43;5.93;;;;;;;12.69;72.13;101583.34;4919922;28;98380;-62
2021/09/22 01:50:52;;;;;;;7.72;5.50;;;;;;;12.72;72.41;101590.94;4919606;28;98230;-63
2021/09/22 01:53:18;;;;;;;8.18;5.65;;;;;;;12.74;71.63;101588.00;4920623;28;98111;-63
2021/09/22 01:55:44;;;;;;;6.28;5.20;;;;;;;12.75;71.99;101585.03;4903475;28;98614;-62
2021/09/22 01:58:11;;;;;;;7.70;5.70;;;;;;;12.76;72.15;101589.34;4919619;28;98251;-63
2021/09/22 02:00:37;;;;;;;7.45;5.80;;;;;;;12.78;72.14;101587.22;4920005;28;115472;-62
2021/09/22 02:03:03;;;;;;;8.00;5.78;;;;;;;12.81;72.34;101590.47;4921296;28;97867;-61
2021/09/22 02:05:29;;;;;;;7.75;5.18;;;;;;;12.81;71.92;101594.03;4920040;28;127934;-64
2021/09/22 02:07:55;;;;;;;7.70;5.65;;;;;;;12.81;72.06;101585.91;4920881;28;108941;-62
2021/09/22 02:10:21;;;;;;;9.05;5.95;;;;;;;12.82;71.88;101590.25;4918557;28;121950;-62
2021/09/22 02:12:47;;;;;;;6.93;5.35;;;;;;;12.82;71.51;101594.84;4919815;28;98899;-62
2021/09/22 02:15:13;;;;;;;6.35;5.13;;;;;;;12.84;72.04;101595.38;4920104;28;99135;-64
2021/09/22 02:17:39;;;;;;;7.35;4.93;;;;;;;12.84;71.55;101587.28;4911202;28;128106;-64
2021/09/22 02:20:07;;;;;;;7.28;5.20;;;;;;;12.83;71.63;101582.94;4919788;28;127444;-64
2021/09/22 02:22:34;;;;;;;7.35;5.15;;;;;;;12.84;71.63;101577.25;4920719;28;97892;-64
2021/09/22 02:25:00;;;;;;;8.65;5.72;;;;;;;12.85;71.61;101575.38;4920807;28;98919;-64
2021/09/22 02:27:26;;;;;;;7.95;5.72;;;;;;;12.84;71.73;101566.44;4920201;28;119201;-64
2021/09/22 02:29:52;;;;;;;9.95;5.75;;;;;;;12.82;71.81;101563.19;4920102;28;127241;-64
2021/09/22 02:32:18;;;;;;;9.80;5.50;;;;;;;12.83;72.24;101570.22;4919756;28;118898;-62
2021/09/22 02:34:44;;;;;;;10.15;5.40;;;;;;;12.82;72.24;101568.59;4919232;28;126956;-62
2021/09/22 02:37:10;;;;;;;9.25;5.68;;;;;;;12.81;71.86;101568.84;4902492;28;98800;-62
2021/09/22 02:39:36;;;;;;;9.88;5.78;;;;;;;12.82;72.08;101573.19;4919822;28;117149;-64
2021/09/22 02:42:03;;;;;;;9.68;5.97;;;;;;;12.82;72.12;101570.50;4918280;28;117808;-62
2021/09/22 02:44:29;;;;;;;9.40;5.50;;;;;;;12.82;72.38;101571.31;4920620;28;104710;-62
2021/09/22 02:46:55;;;;;;;10.30;5.55;;;;;;;12.82;72.47;101567.78;4886379;28;99941;-64
2021/09/22 02:49:21;;;;;;;10.80;5.60;;;;;;;12.81;72.38;101569.69;4923110;28;126194;-64
2021/09/22 02:51:47;;;;;;;7.40;5.20;;;;;;;12.81;72.27;101575.09;4923758;28;109939;-62
2021/09/22 02:54:13;;;;;;;9.23;5.70;;;;;;;12.83;72.44;101569.41;4923495;28;98171;-62
2021/09/22 02:56:39;;;;;;;9.38;5.68;;;;;;;12.83;72.70;101581.03;4922719;28;126518;-62
2021/09/22 02:59:05;;;;;;;9.70;5.22;;;;;;;12.82;72.46;101581.31;4923296;28;127254;-63
2021/09/22 03:01:32;;;;;;;11.65;5.32;;;;;;;12.83;72.85;101591.06;4922572;28;117043;-64
2021/09/22 03:03:58;;;;;;;8.80;5.22;;;;;;;12.83;72.55;101591.06;4923143;28;101781;-64
2021/09/22 03:06:24;;;;;;;9.63;5.32;;;;;;;12.82;72.58;101590.25;4923532;28;98644;-62
2021/09/22 03:08:50;;;;;;;9.95;5.38;;;;;;;12.81;72.63;101587.78;4924997;28;97706;-62
2021/09/22 03:11:16;;;;;;;9.20;5.68;;;;;;;12.82;72.64;101586.72;4922253;28;117181;-61
2021/09/22 03:13:42;;;;;;;9.40;5.05;;;;;;;12.81;72.46;101577.78;4923177;28;111563;-64
2021/09/22 03:16:08;;;;;;;9.25;5.05;;;;;;;12.80;72.55;101572.63;4922567;28;127383;-62
2021/09/22 03:18:35;;;;;;;8.90;5.00;;;;;;;12.80;72.63;101575.31;4923540;28;98228;-63
2021/09/22 03:21:01;;;;;;;11.30;5.43;;;;;;;12.78;72.81;101572.88;4923468;28;98499;-62
2021/09/22 03:23:27;;;;;;;10.02;5.30;;;;;;;12.78;72.81;101584.53;4923061;28;98554;-62
2021/09/22 03:25:53;;;;;;;8.65;4.43;;;;;;;12.77;72.87;101582.06;4923533;28;115273;-62
2021/09/22 03:28:19;;;;;;;8.80;5.20;;;;;;;12.75;72.69;101582.31;4923816;28;97830;-63
2021/09/22 03:30:46;;;;;;;11.43;4.93;;;;;;;12.74;72.62;101593.41;4923514;28;97874;-62
2021/09/22 03:33:12;;;;;;;12.20;5.18;;;;;;;12.74;72.94;101596.09;4922571;28;107774;-62
2021/09/22 03:35:38;;;;;;;10.13;4.70;;;;;;;12.73;73.02;101600.72;4922497;28;128969;-64
2021/09/22 03:38:04;;;;;;;10.50;5.10;;;;;;;12.74;73.14;101594.22;4920902;28;113302;-64
2021/09/22 03:40:31;;;;;;;9.27;5.00;;;;;;;12.73;72.90;101589.03;4905654;28;97994;-62
2021/09/22 03:42:57;;;;;;;11.80;4.93;;;;;;;12.73;72.98;101598.00;4921660;28;117303;-64
2021/09/22 03:45:23;;;;;;;11.25;5.28;;;;;;;12.72;72.97;101593.63;4922819;28;122730;-64
2021/09/22 03:47:49;;;;;;;12.50;5.20;;;;;;;12.72;72.63;101607.16;4922188;28;127637;-62
2021/09/22 03:50:15;;;;;;;11.38;5.05;;;;;;;12.70;73.00;101603.91;4923086;28;97816;-63
2021/09/22 03:52:41;;;;;;;8.95;5.10;;;;;;;12.69;72.80;101615.81;4922204;28;128363;-62
2021/09/22 03:55:08;;;;;;;10.82;5.28;;;;;;;12.68;72.94;101610.63;4920866;28;128062;-64
2021/09/22 03:57:34;;;;;;;9.85;4.68;;;;;;;12.65;72.94;101620.06;4922298;28;104300;-64
2021/09/22 04:00:00;;;;;;;9.43;4.75;;;;;;;12.64;72.79;101612.22;4922571;28;117856;-62
2021/09/22 04:02:26;;;;;;;12.73;5.13;;;;;;;12.62;73.06;101611.66;4921954;28;127841;-62
2021/09/22 04:04:52;;;;;;;12.48;5.30;;;;;;;12.61;73.05;101612.72;4922970;28;98142;-62
2021/09/22 04:07:18;;;;;;;11.55;5.22;;;;;;;12.59;72.96;101618.38;4920673;28;122662;-64
2021/09/22 04:09:44;;;;;;;10.73;4.68;;;;;;;12.61;73.45;101618.13;4905354;28;97816;-62
2021/09/22 04:12:10;;;;;;;9.55;4.43;;;;;;;12.60;72.87;101614.59;4921417;28;127196;-63
2021/09/22 04:14:36;;;;;;;11.30;5.03;;;;;;;12.58;73.36;101624.88;4922595;28;115332;-62
2021/09/22 04:17:02;;;;;;;12.05;5.22;;;;;;;12.58;73.40;101618.66;4919180;28;127626;-64
2021/09/22 04:19:28;;;;;;;11.18;4.97;;;;;;;12.57;73.16;101619.69;4920473;28;109017;-62
2021/09/22 04:21:54;;;;;;;13.82;5.70;;;;;;;12.54;73.21;101615.63;4922228;28;126185;-62
2021/09/22 04:24:20;;;;;;;12.48;5.50;;;;;;;12.53;73.30;101624.78;4922303;28;127639;-64
2021/09/22 04:26:46;;;;;;;12.73;5.95;;;;;;;12.50;73.36;101625.31;4921307;28;127835;-62
2021/09/22 04:29:12;;;;;;;10.77;4.97;;;;;;;12.49;73.32;101621.78;4921492;28;116825;-64
2021/09/22 04:31:40;;;;;;;13.35;4.97;;;;;;;12.48;73.34;101625.56;4921678;28;127702;-62
2021/09/22 04:34:06;;;;;;;13.68;5.30;;;;;;;12.48;73.52;101625.56;4922507;28;98339;-64
2021/09/22 04:36:32;;;;;;;9.82;4.88;;;;;;;12.47;73.81;101628.53;4920836;28;127400;-62
2021/09/22 04:38:58;;;;;;;10.48;4.75;;;;;;;12.47;73.79;101628.53;4922172;28;116753;-62
2021/09/22 04:41:24;;;;;;;12.43;4.90;;;;;;;12.45;73.61;101626.06;4921497;28;100933;-62
2021/09/22 04:43:50;;;;;;;14.20;5.15;;;;;;;12.45;73.67;101622.53;4921808;28;127664;-64
2021/09/22 04:46:17;;;;;;;11.63;5.15;;;;;;;12.46;73.57;101627.72;4920487;28;127295;-66
2021/09/22 04:48:43;;;;;;;13.35;5.07;;;;;;;12.46;73.85;101629.59;4923538;28;97863;-64
2021/09/22 04:51:09;;;;;;;12.02;4.63;;;;;;;12.48;73.53;101628.25;4922998;28;98207;-64
2021/09/22 04:53:35;;;;;;;11.50;4.60;;;;;;;12.49;73.83;101623.66;4920744;28;127687;-64
2021/09/22 04:56:01;;;;;;;11.40;4.53;;;;;;;12.50;73.56;101628.03;4921577;28;98633;-64
2021/09/22 04:58:27;;;;;;;13.95;4.45;;;;;;;12.50;73.62;101626.13;4921553;28;118849;-64
2021/09/22 05:00:53;;;;;;;10.45;4.40;;;;;;;12.51;73.72;101622.34;4920942;28;127528;-64
2021/09/22 05:03:19;;;;;;;13.20;4.18;;;;;;;12.56;73.73;101618.06;4920133;28;101653;-62
2021/09/22 05:05:45;;;;;;;9.77;4.45;;;;;;;12.60;73.58;101624.63;4918946;28;127619;-62
2021/09/22 05:08:11;;;;;;;11.23;4.55;;;;;;;12.61;73.14;101623.53;4904123;28;98264;-62
2021/09/22 05:10:38;;;;;;;11.02;4.40;;;;;;;12.65;73.45;101632.78;4902886;28;110044;-64
2021/09/22 05:13:04;;;;;;;10.55;4.65;;;;;;;12.69;73.29;101631.19;4921116;28;127130;-62
2021/09/22 05:15:30;;;;;;;10.38;3.85;;;;;;;12.73;73.23;101637.75;4920011;28;97857;-62
2021/09/22 05:17:56;;;;;;;13.48;4.30;;;;;;;12.77;72.78;101634.31;4887408;28;107806;-66
2021/09/22 05:20:22;;;;;;;16.27;4.97;;;;;;;12.78;73.09;101641.34;4918448;28;122729;-62
2021/09/22 05:22:48;;;;;;;11.82;4.10;;;;;;;12.79;73.22;101650.28;4920252;28;126643;-62
2021/09/22 05:25:15;;;;;;;17.35;4.57;;;;;;;12.78;73.03;101648.63;4920328;28;126467;-62
2021/09/22 05:27:42;;;;;;;11.60;3.72;;;;;;;12.77;73.32;101655.94;4919276;28;117871;-62
2021/09/22 05:30:09;;;;;;;10.73;4.40;;;;;;;12.80;73.21;101659.19;4921815;28;98798;-62
2021/09/22 05:32:35;;;;;;;11.50;3.80;;;;;;;12.85;73.21;101665.50;4920917;28;114953;-62
2021/09/22 05:35:01;;;;;;;12.63;3.83;;;;;;;12.89;72.92;101663.06;4920073;28;127919;-64
2021/09/22 05:37:29;;;;;;;11.90;3.60;;;;;;;12.90;73.09;101660.13;4921241;28;99234;-62
2021/09/22 05:39:55;;;;;;;11.98;3.40;;;;;;;12.91;73.07;101666.38;4920656;28;98940;-62
2021/09/22 05:42:21;;;;;;;15.52;4.10;;;;;;;12.93;72.97;101667.75;4920388;28;117598;-64
2021/09/22 05:44:47;;;;;;;14.45;4.20;;;;;;;12.95;73.06;101672.91;4919907;28;126869;-62
2021/09/22 05:47:14;;;;;;;11.02;3.38;;;;;;;12.99;73.01;101674.03;4920402;28;118784;-62
2021/09/22 05:49:40;;;;;;;12.05;3.67;;;;;;;13.08;72.90;101677.09;4920391;28;127519;-62
2021/09/22 05:52:06;;;;;;;12.70;4.00;;;;;;;13.15;72.78;101673.09;4919870;28;122421;-64
2021/09/22 05:54:32;;;;;;;10.77;3.47;;;;;;;13.26;72.26;101676.78;4920469;28;127306;-64
2021/09/22 05:56:58;;;;;;;13.77;3.97;;;;;;;13.38;72.24;101672.00;4920929;28;116640;-64
2021/09/22 05:59:24;;;;;;;12.52;3.40;;;;;;;13.45;72.00;101674.53;4917899;28;128059;-62
2021/09/22 06:01:50;;;;;;;12.15;3.50;;;;;;;13.48;72.19;101679.44;4920586;28;128964;-65
2021/09/22 06:04:16;;;;;;;13.82;3.60;;;;;;;13.53;72.38;101682.19;4920262;28;127565;-62
2021/09/22 06:06:42;;;;;;;13.57;3.22;;;;;;;13.54;71.99;101685.69;4920154;28;118406;-64
2021/09/22 06:09:08;;;;;;;14.07;3.65;;;;;;;13.53;71.92;101681.38;4920287;28;125919;-64
2021/09/22 06:11:34;;;;;;;13.80;3.45;;;;;;;13.54;72.80;101686.50;4919757;28;98368;-64
2021/09/22 06:14:00;;;;;;;13.43;3.50;;;;;;;13.60;71.98;101682.78;4920027;28;127373;-62
2021/09/22 06:16:26;;;;;;;11.35;3.05;;;;;;;13.58;71.92;101684.09;4920506;28;97918;-64
2021/09/22 06:18:53;;;;;;;10.70;3.08;;;;;;;13.58;71.81;101693.03;4903848;28;97937;-64
2021/09/22 06:21:19;;;;;;;15.23;3.67;;;;;;;13.59;72.23;101693.84;4921113;28;98248;-63
2021/09/22 06:23:45;;;;;;;12.68;3.38;;;;;;;13.63;71.96;101694.97;4923891;28;98828;-62
2021/09/22 06:26:11;;;;;;;12.57;3.60;;;;;;;13.65;71.96;101704.50;4924153;28;116234;-62
2021/09/22 06:28:37;;;;;;;15.77;3.35;;;;;;;13.71;71.77;101702.63;4923953;28;115879;-64
2021/09/22 06:31:04;;;;;;;12.75;3.38;;;;;;;13.76;71.80;101710.81;4923463;28;128070;-64
2021/09/22 06:33:30;;;;;;;12.82;3.53;;;;;;;13.84;71.75;101704.13;4924513;28;97768;-62
2021/09/22 06:35:59;;;;;;;13.35;3.53;;;;;;;13.91;71.42;101705.53;4924214;28;97821;-62
2021/09/22 06:38:27;;;;;;;11.55;3.15;;;;;;;13.98;71.46;101702.56;4905916;28;98372;-64
2021/09/22 06:40:53;;;;;;;11.82;3.00;;;;;;;14.06;71.46;101709.41;4925521;28;98372;-64
2021/09/22 06:43:20;;;;;;;15.15;3.13;;;;;;;14.08;70.64;101710.78;4922177;28;98493;-62
2021/09/22 06:45:46;;;;;;;14.38;3.63;;;;;;;14.16;70.88;101715.72;4924609;28;98129;-64
2021/09/22 06:48:12;;;;;;;15.23;3.40;;;;;;;14.20;70.36;101716.03;4923343;28;98943;-64
2021/09/22 06:50:38;;;;;;;12.32;2.80;;;;;;;14.21;70.78;101721.16;4923038;28;128100;-64
2021/09/22 06:53:04;;;;;;;16.73;3.08;;;;;;;14.21;70.59;101713.03;4923069;28;123068;-62
2021/09/22 06:55:30;;;;;;;14.63;3.03;;;;;;;14.16;70.92;101713.00;4921109;28;116887;-62
2021/09/22 06:57:56;;;;;;;12.52;2.75;;;;;;;14.24;70.25;101717.13;4923120;28;111799;-62
2021/09/22 07:00:22;;;;;;;13.13;2.97;;;;;;;14.27;70.06;101703.06;4921307;28;125724;-62
2021/09/22 07:02:48;;;;;;;14.25;3.13;;;;;;;14.28;69.71;101709.28;4923421;28;98116;-62
2021/09/22 07:05:14;;;;;;;14.57;2.67;;;;;;;14.24;70.17;101717.13;4924129;28;97625;-62
2021/09/22 07:07:45;;;;;;;11.80;2.83;;;;;;;14.27;70.02;101732.06;4922604;28;120304;-62
2021/09/22 07:10:11;;;;;;;14.35;2.80;;;;;;;14.35;69.78;101726.16;4907353;28;98952;-62
2021/09/22 07:12:37;;;;;;;13.07;2.47;;;;;;;14.43;69.08;101712.09;4922667;28;116255;-62
2021/09/22 07:15:04;;;;;;;13.10;2.75;;;;;;;14.63;68.55;101717.66;4922958;28;117939;-62
2021/09/22 07:17:30;;;;;;;10.85;2.42;;;;;;;14.84;68.33;101717.72;4922397;28;115923;-64
2021/09/22 07:19:56;;;;;;;12.68;2.80;;;;;;;15.08;67.56;101716.19;4922955;28;110934;-62
2021/09/22 07:22:22;;;;;;;13.57;2.70;;;;;;;15.41;67.12;101705.94;4922175;28;122533;-62
2021/09/22 07:24:48;;;;;;;12.48;2.78;;;;;;;15.68;66.39;101708.44;4923011;28;116965;-64
2021/09/22 07:27:15;;;;;;;13.55;2.80;;;;;;;15.85;66.15;101708.16;4923576;28;98316;-62
2021/09/22 07:29:41;;;;;;;14.75;2.80;;;;;;;16.03;65.69;101717.66;4913961;28;117627;-64
2021/09/22 07:32:07;;;;;;;15.07;2.83;;;;;;;16.18;65.19;101714.91;4923528;28;98197;-64
2021/09/22 07:34:34;;;;;;;14.27;2.95;;;;;;;16.32;64.54;101717.91;4922389;28;107103;-65
2021/09/22 07:37:06;;;;;;;11.52;2.35;;;;;;;16.39;64.57;101726.59;4923049;28;99208;-65
2021/09/22 07:39:32;;;;;;;14.40;2.58;;;;;;;16.47;64.50;101727.94;4923681;28;98883;-62
2021/09/22 07:41:58;;;;;;;12.45;2.67;;;;;;;16.52;63.99;101738.81;4922334;28;117520;-65
2021/09/22 07:44:24;;;;;;;15.68;2.88;;;;;;;16.56;64.16;101731.72;4922677;28;118160;-62
2021/09/22 07:46:50;;;;;;;12.07;2.53;;;;;;;16.62;63.84;101738.75;4922237;28;106992;-64
2021/09/22 07:49:17;;;;;;;11.63;2.88;;;;;;;16.64;64.04;101742.84;4922085;28;127285;-62
2021/09/22 07:51:43;;;;;;;12.75;2.75;;;;;;;16.68;63.47;101740.38;4922212;28;98460;-64
2021/09/22 07:54:09;;;;;;;14.75;3.03;;;;;;;16.67;63.10;101750.47;4920539;28;117325;-65
2021/09/22 07:56:35;;;;;;;12.25;2.80;;;;;;;16.60;63.39;101760.81;4921545;28;117061;-64
2021/09/22 07:59:01;;;;;;;13.43;2.70;;;;;;;16.55;63.52;101760.84;4919492;28;128797;-62
2021/09/22 08:01:27;;;;;;;14.13;2.58;;;;;;;16.54;63.35;101759.19;4921618;28;128012;-65
2021/09/22 08:03:53;;;;;;;14.70;2.78;;;;;;;16.55;63.16;101760.03;4923793;28;97706;-62
2021/09/22 08:06:19;;;;;;;10.57;2.67;;;;;;;16.44;63.09;101768.19;4909791;28;126099;-65
2021/09/22 08:08:45;;;;;;;11.05;2.70;;;;;;;16.42;63.45;101758.66;4923051;28;99178;-65
2021/09/22 08:11:12;;;;;;;15.95;2.60;;;;;;;16.37;63.39;101754.06;4921462;28;128082;-62
2021/09/22 08:13:39;;;;;;;13.38;2.60;;;;;;;16.34;63.72;101761.94;4923103;28;99422;-64
2021/09/22 08:16:05;;;;;;;11.95;2.70;;;;;;;16.33;63.10;101765.78;4903343;28;98887;-62
2021/09/22 08:18:31;;;;;;;11.98;2.25;;;;;;;16.35;63.00;101752.72;4921084;28;127944;-62
2021/09/22 08:20:57;;;;;;;11.35;2.40;;;;;;;16.32;63.09;101761.44;4921682;28;115582;-65
2021/09/22 08:23:23;;;;;;;10.68;2.30;;;;;;;16.33;63.04;101757.63;4920371;28;117427;-64
2021/09/22 08:25:50;;;;;;;12.00;2.20;;;;;;;16.41;62.62;101757.84;4921302;28;98018;-64
2021/09/22 08:28:16;;;;;;;11.60;2.20;;;;;;;16.55;61.48;101757.31;4919539;28;128930;-64
2021/09/22 08:30:44;;;;;;;11.77;2.20;;;;;;;16.58;61.28;101760.25;4920175;28;118059;-62
2021/09/22 08:33:10;;;;;;;11.70;2.20;;;;;;;16.55;61.43;101762.75;4920813;28;98112;-64
2021/09/22 08:35:36;;;;;;;12.88;2.22;;;;;;;16.45;61.53;101753.50;4920669;28;99118;-62
2021/09/22 08:38:02;;;;;;;13.98;2.15;;;;;;;16.38;62.11;101758.41;4921226;28;116421;-65
2021/09/22 08:40:28;;;;;;;12.85;2.47;;;;;;;16.37;61.74;101750.53;4922823;28;98324;-65
2021/09/22 08:42:55;;;;;;;12.45;2.28;;;;;;;16.38;61.82;101754.88;4920698;28;98057;-62
2021/09/22 08:45:21;;;;;;;11.10;2.00;;;;;;;16.34;62.48;101759.22;4920665;28;128022;-64
2021/09/22 08:47:47;;;;;;;8.02;1.63;;;;;;;16.27;62.45;101756.81;4920498;28;128364;-62
2021/09/22 08:50:16;;;;;;;11.13;2.00;;;;;;;16.33;61.94;101754.88;4904207;28;113646;-64
2021/09/22 08:52:44;;;;;;;12.82;2.50;;;;;;;16.44;61.60;101767.38;4919013;28;105171;-62
2021/09/22 08:55:11;;;;;;;13.15;2.30;;;;;;;16.34;61.39;101764.69;4922316;28;98418;-62
2021/09/22 08:57:37;;;;;;;10.98;2.25;;;;;;;16.18;61.57;101764.69;4921821;28;98468;-64
2021/09/22 09:00:06;;;;;;;11.02;2.42;;;;;;;16.11;61.77;101760.63;4902679;28;126505;-62
2021/09/22 09:02:43;;;;;;;11.32;2.60;;;;;;;15.95;62.41;101767.97;4920943;28;97902;-62
2021/09/22 09:05:15;;;;;;;13.57;2.10;;;;;;;15.88;62.42;101760.09;4921273;28;118502;-64
2021/09/22 09:07:52;;;;;;;14.48;2.72;;;;;;;15.79;62.76;101769.06;4921535;28;99001;-62
2021/09/22 09:10:19;;;;;;;13.98;2.53;;;;;;;15.75;62.73;101768.78;4921660;28;98560;-62
2021/09/22 09:12:55;;;;;;;10.85;2.47;;;;;;;15.78;62.55;101770.16;4921995;28;107223;-64
2021/09/22 09:15:21;;;;;;;10.95;2.15;;;;;;;15.92;61.83;101760.38;4919197;28;117829;-62
2021/09/22 09:17:50;;;;;;;11.55;2.50;;;;;;;16.38;61.25;101768.47;4885647;28;127711;-64
2021/09/22 09:20:20;;;;;;;11.15;2.20;;;;;;;16.90;59.94;101759.13;4922246;28;97911;-62
2021/09/22 09:23:06;;;;;;;11.80;2.40;;;;;;;17.00;60.31;101769.16;4921028;28;97809;-64
2021/09/22 09:25:40;;;;;;;10.23;2.10;;;;;;;17.06;59.97;101763.41;4919957;28;98253;-62
2021/09/22 09:28:36;;;;;;;10.05;1.88;;;;;;;17.23;60.12;101767.69;4921682;28;98366;-62
2021/09/22 09:31:11;;;;;;;14.98;2.72;;;;;;;17.50;58.93;101772.72;4921057;28;111547;-62
2021/09/22 09:33:49;;;;;;;15.90;3.20;;;;;;;17.56;58.68;101777.00;4921733;28;97606;-62
2021/09/22 09:36:28;;;;;;;12.90;2.30;;;;;;;17.48;58.94;101786.59;4921283;28;99049;-62
2021/09/22 09:38:55;;;;;;;14.32;3.00;;;;;;;17.43;58.54;101781.19;4920870;28;98942;-65
2021/09/22 09:41:51;;;;;;;17.20;2.92;;;;;;;17.47;58.29;101786.88;4920387;28;97824;-62
2021/09/22 09:44:38;;;;;;;11.60;2.35;;;;;;;17.74;58.29;101784.53;4918392;28;97776;-62
2021/09/22 09:47:09;;;;;;;10.48;2.00;;;;;;;18.02;57.51;101785.72;4919803;28;128941;-62
2021/09/22 09:49:37;;;;;;;12.30;2.07;;;;;;;18.30;56.41;101786.00;4903261;28;113618;-65
2021/09/22 09:52:04;;;;;;;11.50;2.08;;;;;;;18.58;55.82;101774.25;4917707;28;99912;-65
2021/09/22 09:54:32;;;;;;;13.90;2.33;;;;;;;18.86;55.32;101774.50;4921853;28;97773;-63
2021/09/22 09:57:13;;;;;;;10.95;2.17;;;;;;;19.31;55.03;101772.31;4919345;28;99080;-62
2021/09/22 09:59:46;;;;;;;10.48;1.90;;;;;;;19.64;54.29;101772.41;4921445;28;98511;-62
2021/09/22 10:02:30;;;;;;;12.57;2.20;;;;;;;19.92;53.96;101767.84;4921337;28;98091;-65
2021/09/22 10:05:00;;;;;;;11.75;2.00;;;;;;;19.95;52.83;101770.78;4921244;28;98322;-65
2021/09/22 10:07:27;;;;;;;12.02;1.95;;;;;;;20.01;52.44;101766.06;4887016;28;98656;-63
2021/09/22 10:09:53;;;;;;;10.35;1.70;;;;;;;20.13;52.26;101768.34;4921433;28;98279;-65
2021/09/22 10:12:20;;;;;;;12.95;2.40;;;;;;;20.27;52.04;101759.00;4920845;28;98371;-63
2021/09/22 10:14:47;;;;;;;10.60;1.90;;;;;;;20.26;52.38;101757.41;4920419;28;118394;-65
2021/09/22 10:17:15;;;;;;;10.23;1.98;;;;;;;20.18;52.08;101763.56;4919811;28;98183;-63
2021/09/22 10:19:44;;;;;;;12.18;2.10;;;;;;;20.08;52.48;101766.47;4921207;28;99040;-63
2021/09/22 10:22:10;;;;;;;12.82;2.20;;;;;;;20.00;51.63;101762.53;4918676;28;116757;-62
2021/09/22 10:24:36;;;;;;;11.63;2.10;;;;;;;19.90;52.02;101759.94;4921493;28;97852;-65
2021/09/22 10:27:03;;;;;;;10.52;2.00;;;;;;;19.74;51.91;101759.38;4920145;28;118183;-63
2021/09/22 10:29:36;;;;;;;12.32;2.10;;;;;;;19.65;52.40;101758.44;4920253;28;117217;-65
2021/09/22 10:32:02;;;;;;;11.23;2.35;;;;;;;19.63;52.51;101763.38;4921171;28;97792;-62
2021/09/22 10:34:34;;;;;;;10.48;1.90;;;;;;;19.71;53.01;101759.97;4920032;28;97869;-65
2021/09/22 10:37:05;;;;;;;11.32;2.30;;;;;;;19.74;52.55;101753.91;4902281;28;99075;-62
2021/09/22 10:39:37;;;;;;;13.63;2.30;;;;;;;19.68;52.99;101751.53;4901818;28;98890;-65
2021/09/22 10:42:29;;;;;;;;;;;;;;;19.71;53.49;101750.97;4914847;28;98209;-65
2021/09/22 10:45:16;;;;;;;9.20;1.83;;;;;;;19.76;53.19;101754.41;4922010;28;98063;-62
2021/09/22 10:47:42;;;;;;;11.75;2.13;;;;;;;19.82;51.79;101749.69;4920437;28;98067;-65
2021/09/22 10:50:11;;;;;;;11.85;1.95;;;;;;;19.90;51.49;101746.25;4919857;28;98467;-63
2021/09/22 10:52:41;;;;;;;11.88;1.75;;;;;;;20.06;51.28;101739.41;4919336;28;109900;-65
2021/09/22 10:55:16;;;;;;;11.48;2.33;;;;;;;20.13;51.16;101735.50;4920636;28;108929;-65
2021/09/22 10:57:44;;;;;;;11.40;2.10;;;;;;;20.27;50.98;101734.38;4918343;28;98679;-65
2021/09/22 11:00:15;;;;;;;12.00;2.00;;;;;;;20.13;51.32;101740.97;4920767;28;98297;-63
2021/09/22 11:02:48;;;;;;;11.32;2.03;;;;;;;20.01;51.99;101747.72;4920065;28;97692;-65
2021/09/22 11:05:26;;;;;;;10.40;2.10;;;;;;;19.99;51.84;101755.41;4920432;28;97879;-65
2021/09/22 11:08:06;;;;;;;10.55;2.00;;;;;;;19.84;51.65;101750.19;4920036;28;98635;-65
2021/09/22 11:10:32;;;;;;;13.43;2.08;;;;;;;19.80;51.27;101758.16;4923611;28;98603;-63
2021/09/22 11:13:23;;;;;;;10.57;1.58;;;;;;;19.83;51.77;101749.38;4922812;28;97937;-65
2021/09/22 11:15:53;;;;;;;9.20;1.80;;;;;;;19.78;51.90;101740.44;4923500;28;97824;-63
2021/09/22 11:18:19;;;;;;;10.93;2.00;;;;;;;19.73;51.77;101741.34;4923304;28;98779;-63